Terminal Aerodrome Forecast
Issued by NWS

Home | Current Version | Previous Version | Text Only | Print | Product List | Glossary On
Versions: 1 2 3 4 5 6 7 8 9 10 11 12 13 14 15 16 17 18 19 20 21 22 23 24 25 26 27 28 29 30 31 32 33 34
000
FTUS45 KLKN 240520
TAFTPH
TAF
KTPH 240520Z 2406/2506 32012KT P6SM VCSH SCT060 SCT120
      TEMPO 2408/2411 -SN BKN050=

USA.gov is the U.S. government's official web portal to all federal, state and local government web resources and services.